Burleson, TX (76028)

11:08 AM CST on January 31, 2015 (GMT -0600)
Oak Valley Weather | Change Station
CLOSE
Current Station
Personal Weather Station
Location: Burleson, TX
Elevation: 706 ft
Nearby Weather Stations

Elev 706 ft 32.53 °N, 97.32 °W | Updated 5 minutes ago

Overcast
Overcast
49.5 °F
Feels Like 50 °F
N
3.0
Wind Variable Wind from SE
Gusts 12.0 mph

Today
High -- | Low -- °F
--% Chance of Precip.
Yesterday
High -- | Low -- °F
Precip. -- in
7:24 AM 6:01 PM
Waxing Gibbous, 90% visible
Pressure 30.18 in
Visibility 10.0 miles
Clouds Mostly Cloudy 2300 ft
Overcast 8000 ft
Windchill 50 °F
Dew Point 36 °F
Humidity 60%
Rainfall -999.00 in
Snow Depth Not available.
UV 1 out of 12
Pollen 7.00 out of 12
Air Quality Not available.
Flu Activity Not available.
METAR KFWS 311649Z 11011KT 10SM BKN023 OVC080 09/01 A3018

More Conditions Fewer Conditions

Pressure 30.18 in
Visibility 10.0 miles
Clouds Mostly Cloudy 2300 ft
Overcast 8000 ft
Windchill 50 °F
Dew Point 36 °F
Humidity 60%
Rainfall -999.00 in
Snow Depth Not available.
UV 1 out of 12
Pollen 7.00 out of 12
Air Quality Not available.
Flu Activity Not available.
METAR KFWS 311649Z 11011KT 10SM BKN023 OVC080 09/01 A3018

More Conditions Fewer Conditions

Nowcast | as of 10:53 am CST on January 31, 2015

Regional radars indicated that areas of drizzle and light rain were ongoing mainly along and northwest of a Breckenridge to Graham to Bowie line. Areas of drizzle and light rain will gradually overspread portions of north and central Texas into the early afternoon as an upper level low ventures closer to the region. Rainfall amounts through the mid afternoon hours will remain light and most locations across western North Texas will only receive a few hundredths of an inch. Otherwise...skies will remain mostly cloudy with light southeast winds. Temperatures will slowly climb into the low to mid 50s across most of north and central Texas.

×

10-Day Weather Forecast

Almanac

Astronomy

Jan. 31, 2015 Rise Set
Actual Time
Civil Twilight
Nautical Twilight
Astronomical Twilight
Moon
Length of Visible Light
Length of Day
Tomorrow will be .
, % of the Moon is Illuminated

Today's Extremes

State Highs State Lows

Community

WunderPhotos

Upload Photos

1,792,117 photos uploaded!

WunderBlogs® & News

Nearby

Air Quality

  Air Quality AQ Index Pollutant
Not available.

Snow Depth

Station Depth Elevation

Earthquake Activity

City Distance Mag. Time & Date
Minimum magnitude displayed is 2.5.

Coastal Water Temperatures

Place Temperature

Nearby Weather Stations